createdAt,value
2022-11-21T00:00:45.005Z,99484.91
2022-11-21T00:01:48.715Z,99484.02
2022-11-21T00:02:52.891Z,99473.63
2022-11-21T00:03:54.977Z,99478.76
2022-11-21T00:04:57.408Z,99485.75
2022-11-21T00:06:00.967Z,99485.80
2022-11-21T00:07:02.917Z,99479.78
2022-11-21T00:08:05.191Z,99482.29
2022-11-21T00:09:07.066Z,99478.03
2022-11-21T00:10:09.575Z,99478.97
2022-11-21T00:11:11.383Z,99485.89
2022-11-21T00:12:17.393Z,99489.44
2022-11-21T00:13:20.132Z,99495.33
2022-11-21T00:14:22.067Z,99488.50
2022-11-21T00:15:25.655Z,99479.05
2022-11-21T00:16:27.604Z,99479.78
2022-11-21T00:17:29.202Z,99476.41
2022-11-21T00:18:32.764Z,99468.81
2022-11-21T00:19:35.017Z,99474.84
2022-11-21T00:20:37.822Z,99468.08
2022-11-21T00:21:39.946Z,99466.35
2022-11-21T00:22:41.849Z,99475.78
2022-11-21T00:23:44.765Z,99469.87
2022-11-21T00:24:50.520Z,99472.53
2022-11-21T00:25:51.005Z,99469.03
2022-11-21T00:26:52.874Z,99469.84
2022-11-21T00:27:54.520Z,99466.42
2022-11-21T00:28:56.249Z,99463.05
2022-11-21T00:29:57.996Z,99459.60
2022-11-21T00:30:59.907Z,99450.97
2022-11-21T00:32:01.862Z,99463.69
2022-11-21T00:33:03.877Z,99456.97
2022-11-21T00:34:05.704Z,99456.12
2022-11-21T00:35:08.006Z,99469.72
2022-11-21T00:36:10.531Z,99469.72
2022-11-21T00:37:12.510Z,99466.23
2022-11-21T00:38:15.194Z,99460.22
2022-11-21T00:39:16.997Z,99449.20
2022-11-21T00:40:19.054Z,99449.20
2022-11-21T00:41:20.748Z,99441.62
2022-11-21T00:42:22.414Z,99445.85
2022-11-21T00:43:27.209Z,99441.62
2022-11-21T00:44:29.207Z,99439.03
2022-11-21T00:45:31.141Z,99441.52
2022-11-21T00:46:34.097Z,99435.55
2022-11-21T00:47:36.134Z,99434.66
2022-11-21T00:48:38.569Z,99437.17
2022-11-21T00:49:40.573Z,99428.64
2022-11-21T00:50:43.452Z,99427.73
2022-11-21T00:51:45.443Z,99417.45
2022-11-21T00:52:47.328Z,99415.81
2022-11-21T00:53:50.130Z,99404.72
2022-11-21T00:54:52.335Z,99404.72
2022-11-21T00:55:54.093Z,99405.59
2022-11-21T00:56:55.974Z,99414.97
2022-11-21T00:57:57.699Z,99422.66
2022-11-21T00:58:59.697Z,99418.29
2022-11-21T01:00:01.925Z,99426.84
2022-11-21T01:01:12.543Z,99432.75
2022-11-21T01:02:14.896Z,99430.16
2022-11-21T01:03:16.721Z,99427.57
2022-11-21T01:04:19.103Z,99425.88
2022-11-21T01:05:24.830Z,99421.52
2022-11-21T01:06:27.649Z,99428.30
2022-11-21T01:07:29.511Z,99421.41
2022-11-21T01:08:32.287Z,99426.45
2022-11-21T01:09:34.869Z,99430.71
2022-11-21T01:10:37.418Z,99440.16
2022-11-21T01:11:39.346Z,99430.71
2022-11-21T01:12:41.552Z,99429.81
2022-11-21T01:13:44.208Z,99420.48
2022-11-21T01:14:46.531Z,99419.63
2022-11-21T01:15:48.379Z,99419.77
2022-11-21T01:16:50.551Z,99422.33
2022-11-21T01:17:52.425Z,99424.84
2022-11-21T01:18:55.450Z,99417.95
2022-11-21T01:19:57.302Z,99420.55
2022-11-21T01:21:01.934Z,99416.31
2022-11-21T01:22:03.894Z,99413.94
2022-11-21T01:23:05.952Z,99412.33
2022-11-21T01:24:12.811Z,99421.72
2022-11-21T01:25:16.132Z,99420.02
2022-11-21T01:26:22.296Z,99426.01
2022-11-21T01:27:24.406Z,99414.03
2022-11-21T01:28:26.149Z,99414.86
2022-11-21T01:29:28.171Z,99418.29
2022-11-21T01:30:30.059Z,99407.98
2022-11-21T01:31:32.292Z,99413.02
2022-11-21T01:32:34.769Z,99407.92
2022-11-21T01:33:39.929Z,99413.86
2022-11-21T01:34:41.899Z,99415.53
2022-11-21T01:35:44.871Z,99417.17
2022-11-21T01:36:47.409Z,99408.56
2022-11-21T01:37:49.826Z,99415.39
2022-11-21T01:38:54.026Z,99405.94
2022-11-21T01:39:55.908Z,99417.80
2022-11-21T01:40:57.824Z,99430.56
2022-11-21T01:41:59.499Z,99422.78
2022-11-21T01:43:05.342Z,99407.54
2022-11-21T01:44:19.690Z,99407.54
2022-11-21T01:45:48.236Z,99406.64
2022-11-21T01:46:51.921Z,99399.69
2022-11-21T01:47:54.386Z,99400.49
2022-11-21T01:49:05.677Z,99402.16
2022-11-21T01:50:12.824Z,99405.56
2022-11-21T01:51:21.872Z,99402.99
2022-11-21T01:52:27.407Z,99398.73
2022-11-21T01:53:29.810Z,99390.13
2022-11-21T01:55:51.466Z,99388.16
2022-11-21T01:57:02.611Z,99384.97
2022-11-21T01:58:04.780Z,99377.34
2022-11-21T01:59:09.241Z,99383.34
2022-11-21T02:00:20.667Z,99380.77
2022-11-21T02:01:23.827Z,99378.20
2022-11-21T02:02:32.222Z,99369.84
2022-11-21T02:03:37.639Z,99387.83
2022-11-21T02:04:42.796Z,99391.29
2022-11-21T02:05:45.413Z,99395.58
2022-11-21T02:06:48.729Z,99399.84
2022-11-21T02:07:53.740Z,99400.71
2022-11-21T02:08:58.186Z,99398.12
2022-11-21T02:10:02.672Z,99400.66
2022-11-21T02:11:32.441Z,99413.44
2022-11-21T02:12:52.848Z,99403.95
2022-11-21T02:13:55.595Z,99397.86
2022-11-21T02:14:58.735Z,99409.79
2022-11-21T02:16:02.341Z,99416.69
2022-11-21T02:17:07.352Z,99420.92
2022-11-21T02:18:09.401Z,99425.25
2022-11-21T02:19:20.578Z,99431.15
2022-11-21T02:20:25.113Z,99431.98
2022-11-21T02:21:57.035Z,99420.82
2022-11-21T02:23:15.063Z,99431.78
2022-11-21T02:24:29.952Z,99439.36
2022-11-21T02:25:35.560Z,99428.29
2022-11-21T02:26:38.232Z,99420.52
2022-11-21T02:27:40.534Z,99413.69
2022-11-21T02:28:44.188Z,99406.06
2022-11-21T02:29:46.763Z,99406.95
2022-11-21T02:30:49.180Z,99405.19
2022-11-21T02:31:51.057Z,99407.72
2022-11-21T02:32:53.082Z,99406.86
2022-11-21T02:33:54.866Z,99394.95
2022-11-21T02:34:56.690Z,99404.39
2022-11-21T02:36:00.590Z,99400.20
2022-11-21T02:37:02.478Z,99407.06
2022-11-21T02:38:26.696Z,99404.49
2022-11-21T02:39:32.207Z,99404.46
2022-11-21T02:40:37.948Z,99408.76
2022-11-21T02:41:49.284Z,99415.59
2022-11-21T02:43:09.525Z,99412.16
2022-11-21T02:44:22.484Z,99413.86
2022-11-21T02:45:28.263Z,99418.89
2022-11-21T02:46:30.462Z,99420.52
2022-11-21T02:47:34.993Z,99429.05
2022-11-21T02:48:38.176Z,99428.12
2022-11-21T02:49:46.623Z,99420.42
2022-11-21T02:50:48.470Z,99426.34
2022-11-21T02:51:50.225Z,99427.11
2022-11-21T02:52:52.216Z,99421.97
2022-11-21T02:53:54.061Z,99421.97
2022-11-21T02:54:56.307Z,99422.88
2022-11-21T02:55:58.585Z,99419.52
2022-11-21T02:57:02.908Z,99411.02
2022-11-21T02:58:05.977Z,99409.31
2022-11-21T02:59:08.337Z,99407.66
2022-11-21T03:00:11.525Z,99415.35
2022-11-21T03:01:13.964Z,99405.92
2022-11-21T03:02:16.322Z,99410.22
2022-11-21T03:03:18.608Z,99408.63
2022-11-21T03:04:20.402Z,99412.09
2022-11-21T03:05:23.241Z,99408.73
2022-11-21T03:06:25.153Z,99403.62
2022-11-21T03:07:27.568Z,99407.02
2022-11-21T03:08:30.237Z,99407.86
2022-11-21T03:09:32.112Z,99418.09
2022-11-21T03:10:35.064Z,99416.39
2022-11-21T03:11:36.798Z,99420.72
2022-11-21T03:12:40.194Z,99416.49
2022-11-21T03:13:42.454Z,99423.32
2022-11-21T03:14:44.786Z,99412.26
2022-11-21T03:15:47.492Z,99419.16
2022-11-21T03:16:49.551Z,99399.49
2022-11-21T03:17:51.187Z,99408.86
2022-11-21T03:18:52.819Z,99401.99
2022-11-21T03:19:54.978Z,99404.53
2022-11-21T03:20:57.466Z,99403.59
2022-11-21T03:21:59.331Z,99408.89
2022-11-21T03:23:01.539Z,99403.95
2022-11-21T03:24:04.200Z,99399.66
2022-11-21T03:25:06.605Z,99395.30
2022-11-21T03:26:10.293Z,99402.06
2022-11-21T03:27:12.304Z,99407.92
2022-11-21T03:28:14.134Z,99408.80
2022-11-21T03:29:16.002Z,99414.02
2022-11-21T03:30:19.993Z,99418.35
2022-11-21T03:31:22.371Z,99420.92
2022-11-21T03:32:24.395Z,99413.22
2022-11-21T03:33:26.162Z,99415.72
2022-11-21T03:34:28.291Z,99425.86
2022-11-21T03:35:30.722Z,99423.22
2022-11-21T03:36:32.743Z,99425.72
2022-11-21T03:37:34.399Z,99422.16
2022-11-21T03:38:36.040Z,99425.52
2022-11-21T03:39:37.672Z,99423.67
2022-11-21T03:40:39.565Z,99421.00
2022-11-21T03:41:41.912Z,99416.12
2022-11-21T03:42:44.003Z,99421.28
2022-11-21T03:43:45.756Z,99422.16
2022-11-21T03:44:47.419Z,99432.38
2022-11-21T03:45:49.743Z,99435.72
2022-11-21T03:46:51.513Z,99434.88
2022-11-21T03:47:53.250Z,99438.28
2022-11-21T03:48:55.607Z,99434.81
2022-11-21T03:49:57.613Z,99431.38
2022-11-21T03:50:59.518Z,99427.05
2022-11-21T03:52:01.400Z,99423.57
2022-11-21T03:53:03.153Z,99420.09
2022-11-21T03:54:05.911Z,99422.63
2022-11-21T03:55:08.125Z,99420.06
2022-11-21T03:56:10.644Z,99419.19
2022-11-21T03:57:12.531Z,99412.25
2022-11-21T03:58:14.180Z,99413.08
2022-11-21T03:59:16.531Z,99413.00
2022-11-21T04:00:19.083Z,99407.00
2022-11-21T04:01:21.903Z,99393.28
2022-11-21T04:02:23.875Z,99397.48
2022-11-21T04:03:25.898Z,99391.85
2022-11-21T04:04:27.844Z,99396.19
2022-11-21T04:05:29.817Z,99394.50
2022-11-21T04:06:31.866Z,99396.19
2022-11-21T04:07:33.698Z,99405.59
2022-11-21T04:08:35.768Z,99401.33
2022-11-21T04:09:37.442Z,99393.59
2022-11-21T04:10:39.276Z,99387.59
2022-11-21T04:11:40.925Z,99393.55
2022-11-21T04:12:42.685Z,99396.95
2022-11-21T04:13:44.521Z,99406.47
2022-11-21T04:14:46.730Z,99413.30
2022-11-21T04:15:49.112Z,99410.73
2022-11-21T04:16:50.932Z,99419.41
2022-11-21T04:17:52.795Z,99415.39
2022-11-21T04:18:55.187Z,99414.52
2022-11-21T04:19:57.124Z,99411.89
2022-11-21T04:21:01.883Z,99408.41
2022-11-21T04:22:04.043Z,99410.11
2022-11-21T04:23:06.738Z,99404.91
2022-11-21T04:24:08.635Z,99407.41
2022-11-21T04:25:11.317Z,99406.50
2022-11-21T04:26:15.297Z,99404.77
2022-11-21T04:27:17.222Z,99399.63
2022-11-21T04:28:19.573Z,99397.89
2022-11-21T04:29:21.382Z,99393.63
2022-11-21T04:30:23.392Z,99391.06
2022-11-21T04:31:25.128Z,99383.32
2022-11-21T04:32:26.857Z,99385.85
2022-11-21T04:33:29.062Z,99377.39
2022-11-21T04:34:31.265Z,99377.50
2022-11-21T04:35:33.382Z,99386.14
2022-11-21T04:36:35.827Z,99380.18
2022-11-21T04:37:38.913Z,99371.58
2022-11-21T04:38:41.161Z,99371.54
2022-11-21T04:39:42.925Z,99368.17
2022-11-21T04:40:44.708Z,99363.84
2022-11-21T04:41:46.897Z,99369.05
2022-11-21T04:42:48.688Z,99359.61
2022-11-21T04:43:51.033Z,99365.53
2022-11-21T04:44:52.857Z,99354.44
2022-11-21T04:45:54.613Z,99345.08
2022-11-21T04:46:59.911Z,99349.38
2022-11-21T04:48:00.398Z,99346.84
2022-11-21T04:49:03.445Z,99340.13
2022-11-21T04:50:09.001Z,99341.90
2022-11-21T04:51:10.795Z,99341.83
2022-11-21T04:52:12.794Z,99340.23
2022-11-21T04:53:14.446Z,99340.23
2022-11-21T04:54:16.567Z,99345.27
2022-11-21T04:55:20.708Z,99350.43
2022-11-21T04:56:22.927Z,99355.48
2022-11-21T06:16:23.549Z,99332.73
2022-11-21T06:17:25.470Z,99334.55
2022-11-21T06:18:29.973Z,99337.05
2022-11-21T06:19:32.164Z,99328.45
2022-11-21T06:20:33.986Z,99330.09
2022-11-21T06:21:35.744Z,99330.05
2022-11-21T06:22:37.660Z,99335.89
2022-11-21T06:23:39.984Z,99322.14
2022-11-21T06:24:42.150Z,99324.56
2022-11-21T06:25:44.088Z,99320.98
2022-11-21T06:26:45.831Z,99314.07
2022-11-21T06:27:47.877Z,99317.34
2022-11-21T06:28:50.080Z,99329.14
2022-11-21T06:29:52.204Z,99324.74
2022-11-21T06:30:54.651Z,99318.68
2022-11-21T06:31:57.036Z,99322.08
2022-11-21T06:32:59.890Z,99324.47
2022-11-21T06:34:02.157Z,99314.94
2022-11-21T06:35:04.566Z,99318.34
2022-11-21T06:36:09.422Z,99305.41
2022-11-21T06:37:11.925Z,99313.86
2022-11-21T06:38:14.368Z,99319.78
2022-11-21T06:39:16.086Z,99323.94
2022-11-21T06:40:18.651Z,99321.52
2022-11-21T06:41:22.747Z,99330.16
2022-11-21T06:42:24.954Z,99335.18
2022-11-21T06:43:26.634Z,99323.94
2022-11-21T06:44:28.749Z,99323.78
2022-11-21T06:45:32.089Z,99317.63
2022-11-21T06:46:34.611Z,99312.34
2022-11-21T06:47:36.517Z,99309.61
2022-11-21T06:48:39.547Z,99303.52
2022-11-21T06:49:41.578Z,99303.48
2022-11-21T06:50:43.560Z,99294.95
2022-11-21T06:51:46.447Z,99297.97
2022-11-21T06:52:49.524Z,99294.84
2022-11-21T06:53:57.398Z,99301.48
2022-11-21T06:54:59.421Z,99314.23
2022-11-21T06:56:02.742Z,99314.87
2022-11-21T06:57:05.083Z,99311.52
2022-11-21T06:58:06.998Z,99310.52
2022-11-21T06:59:09.302Z,99310.41
2022-11-21T07:00:13.444Z,99310.44
2022-11-21T07:01:15.582Z,99317.31
2022-11-21T07:02:17.595Z,99304.39
2022-11-21T07:03:19.455Z,99308.66
2022-11-21T07:04:21.390Z,99314.50
2022-11-21T07:05:23.671Z,99315.30
2022-11-21T07:06:25.661Z,99313.38
2022-11-21T07:07:28.555Z,99312.42
2022-11-21T07:08:32.564Z,99307.16
2022-11-21T07:09:34.426Z,99306.24
2022-11-21T07:10:36.365Z,99315.55
2022-11-21T07:11:37.996Z,99323.22
2022-11-21T07:12:39.749Z,99320.52
2022-11-21T07:13:42.842Z,99323.00
2022-11-21T07:14:45.472Z,99321.30
2022-11-21T07:15:49.539Z,99321.39
2022-11-21T07:16:51.592Z,99318.81
2022-11-21T07:17:53.258Z,99323.05
2022-11-21T07:18:55.066Z,99316.16
2022-11-21T07:19:57.921Z,99320.34
2022-11-21T07:21:02.756Z,99318.73
2022-11-21T07:22:05.199Z,99322.09
2022-11-21T07:23:07.994Z,99331.53
2022-11-21T07:24:10.643Z,99339.28
2022-11-21T07:25:12.440Z,99338.37
2022-11-21T07:26:15.466Z,99347.69
2022-11-21T07:27:17.680Z,99338.98
2022-11-21T07:28:20.029Z,99346.64
2022-11-21T07:29:21.897Z,99348.33
2022-11-21T07:30:23.749Z,99334.52
2022-11-21T07:31:26.225Z,99334.52
2022-11-21T07:32:28.320Z,99344.75
2022-11-21T07:33:30.822Z,99346.41
2022-11-21T07:34:32.633Z,99353.25
2022-11-21T07:35:35.609Z,99351.56
2022-11-21T07:36:37.872Z,99344.66
2022-11-21T07:37:39.578Z,99351.51
2022-11-21T07:38:42.556Z,99342.83
2022-11-21T07:39:45.210Z,99337.69
2022-11-21T07:40:47.264Z,99324.88
2022-11-21T07:41:48.883Z,99325.70
2022-11-21T07:42:50.651Z,99318.90
2022-11-21T07:43:53.147Z,99327.55
2022-11-21T07:44:55.016Z,99332.69
2022-11-21T07:45:56.739Z,99329.23
2022-11-21T07:46:59.020Z,99329.23
2022-11-21T07:48:02.716Z,99325.11
2022-11-21T07:49:04.638Z,99319.09
2022-11-21T07:50:10.790Z,99319.28
2022-11-21T07:51:12.822Z,99319.42
2022-11-21T07:52:14.540Z,99318.59
2022-11-21T07:53:17.503Z,99319.38
2022-11-21T07:54:20.113Z,99318.64
2022-11-21T07:55:22.649Z,99324.22
2022-11-21T07:56:24.532Z,99325.23
2022-11-21T07:57:26.843Z,99321.78
2022-11-21T07:58:28.623Z,99319.26
2022-11-21T07:59:31.009Z,99306.67
2022-11-21T08:00:35.742Z,99306.67
2022-11-21T08:01:42.598Z,99317.77
2022-11-21T08:02:42.640Z,99316.08
2022-11-21T08:03:45.657Z,99316.86
2022-11-21T08:04:47.908Z,99313.38
2022-11-21T08:05:49.684Z,99319.34
2022-11-21T08:06:52.429Z,99297.88
2022-11-21T08:07:54.196Z,99297.88
2022-11-21T08:08:56.120Z,99309.73
2022-11-21T08:09:58.659Z,99310.51
2022-11-21T08:11:06.547Z,99311.30
2022-11-21T08:12:09.239Z,99304.41
2022-11-21T08:13:12.615Z,99307.72
2022-11-21T08:14:15.264Z,99310.24
2022-11-21T08:15:17.305Z,99315.29
2022-11-21T08:16:19.082Z,99323.65
2022-11-21T08:17:20.815Z,99325.30
2022-11-21T08:18:22.490Z,99321.80
2022-11-21T08:19:24.324Z,99327.64
2022-11-21T08:20:26.632Z,99326.07
2022-11-21T08:21:28.952Z,99331.08
2022-11-21T08:22:31.197Z,99330.11
2022-11-21T08:23:33.083Z,99317.98
2022-11-21T08:24:35.057Z,99313.67
2022-11-21T08:25:38.433Z,99305.08
2022-11-21T08:26:40.748Z,99305.08
2022-11-21T08:27:43.098Z,99308.33
2022-11-21T08:28:45.740Z,99322.87
2022-11-21T08:29:47.755Z,99314.34
2022-11-21T08:30:49.662Z,99314.40
2022-11-21T08:31:51.531Z,99318.67
2022-11-21T08:32:54.401Z,99320.27
2022-11-21T08:33:56.501Z,99316.77
2022-11-21T08:34:59.124Z,99313.23
2022-11-21T08:36:07.302Z,99314.92
2022-11-21T08:37:09.930Z,99306.63
2022-11-21T08:38:11.822Z,99311.72
2022-11-21T08:39:13.617Z,99311.72
2022-11-21T08:40:17.771Z,99311.62
2022-11-21T08:41:19.958Z,99312.35
2022-11-21T08:42:22.359Z,99308.95
2022-11-21T08:43:24.344Z,99314.92
2022-11-21T08:44:26.389Z,99306.57
2022-11-21T08:45:29.172Z,99304.73
2022-11-21T08:46:31.776Z,99298.72
2022-11-21T08:47:33.557Z,99307.20
2022-11-21T08:48:35.852Z,99295.47
2022-11-21T08:49:38.743Z,99295.47
2022-11-21T08:50:40.690Z,99292.03
2022-11-21T08:51:42.391Z,99296.34
2022-11-21T08:52:44.339Z,99293.71
2022-11-21T08:53:46.070Z,99292.74
2022-11-21T08:54:48.322Z,99294.60
2022-11-21T08:55:50.115Z,99286.01
2022-11-21T08:56:52.935Z,99287.03
2022-11-21T08:57:55.920Z,99283.58
2022-11-21T08:58:58.431Z,99280.19
2022-11-21T09:00:00.163Z,99279.30
2022-11-21T09:01:02.186Z,99278.63
2022-11-21T09:02:04.080Z,99272.67
2022-11-21T09:03:05.982Z,99278.88
2022-11-21T09:04:08.657Z,99276.46
2022-11-21T09:05:10.350Z,99274.80
2022-11-21T09:06:14.201Z,99271.55
2022-11-21T09:07:16.444Z,99270.69
2022-11-21T09:08:18.240Z,99266.41
2022-11-21T09:09:25.080Z,99257.82
2022-11-21T09:10:25.919Z,99261.18
2022-11-21T09:11:27.904Z,99259.52
2022-11-21T09:12:30.744Z,99256.32
2022-11-21T09:13:33.598Z,99258.20
2022-11-21T09:14:35.390Z,99251.51
2022-11-21T09:15:37.557Z,99253.64
2022-11-21T09:16:39.374Z,99256.08
2022-11-21T09:17:41.127Z,99253.47
2022-11-21T09:18:43.631Z,99254.42
2022-11-21T09:19:45.306Z,99253.99
2022-11-21T09:20:47.241Z,99257.30
2022-11-21T09:21:50.151Z,99265.30
2022-11-21T09:22:52.017Z,99264.38
2022-11-21T09:23:53.637Z,99263.39
2022-11-21T09:24:55.289Z,99263.34
2022-11-21T09:25:58.886Z,99261.56
2022-11-21T09:27:00.978Z,99262.27
2022-11-21T09:28:04.643Z,99254.61
2022-11-21T09:29:06.616Z,99259.05
2022-11-21T09:30:11.223Z,99265.09
2022-11-21T09:31:13.558Z,99255.69
2022-11-21T09:32:15.452Z,99260.82
2022-11-21T09:33:17.167Z,99253.16
2022-11-21T09:34:19.608Z,99250.47
2022-11-21T09:35:21.325Z,99250.47
2022-11-21T09:36:23.026Z,99261.56
2022-11-21T09:37:25.021Z,99253.66
2022-11-21T09:38:27.327Z,99255.30
2022-11-21T09:39:29.558Z,99257.73
2022-11-21T09:40:33.664Z,99265.45
2022-11-21T09:42:14.034Z,99267.05
2022-11-21T09:43:38.003Z,99270.58
2022-11-21T09:45:00.376Z,99271.55
2022-11-21T09:46:12.023Z,99270.58
2022-11-21T09:47:23.381Z,99272.28
2022-11-21T09:48:33.104Z,99274.75
2022-11-21T09:49:39.484Z,99278.89
2022-11-21T09:50:49.370Z,99276.19
2022-11-21T09:51:50.263Z,99275.36
2022-11-21T09:53:03.472Z,99273.61
2022-11-21T09:54:09.021Z,99264.03
2022-11-21T09:55:31.701Z,99271.59
2022-11-21T09:56:37.387Z,99263.75
2022-11-21T09:57:39.333Z,99263.10
2022-11-21T09:58:45.257Z,99255.34
2022-11-21T09:59:48.727Z,99256.32
2022-11-21T10:00:52.525Z,99260.64
2022-11-21T10:01:55.129Z,99260.68
2022-11-21T10:02:58.671Z,99256.36
2022-11-21T10:04:01.657Z,99254.63
2022-11-21T10:05:06.252Z,99247.14
2022-11-21T10:06:23.513Z,99249.57
2022-11-21T10:09:20.042Z,99250.20
2022-11-21T10:10:50.595Z,99249.29
2022-11-21T10:12:05.355Z,99249.43
2022-11-21T10:13:11.376Z,99239.34
2022-11-21T10:14:52.775Z,99227.38
2022-11-21T10:16:04.545Z,99233.52
2022-11-21T10:17:25.741Z,99228.92
2022-11-21T11:50:34.589Z,99079.06
2022-11-21T11:51:42.564Z,99073.27
2022-11-21T11:53:17.365Z,99061.34
2022-11-21T11:54:25.936Z,99060.48
2022-11-21T11:55:40.732Z,99061.25
2022-11-21T11:56:45.021Z,99062.85
2022-11-21T11:57:50.584Z,99066.18
2022-11-21T12:00:31.663Z,99058.21
2022-11-21T12:01:40.199Z,99065.98
2022-11-21T12:03:05.235Z,99056.58
2022-11-21T12:04:16.125Z,99057.41
2022-11-21T12:05:27.272Z,99043.79
2022-11-21T12:07:10.629Z,99052.20
2022-11-21T12:08:38.852Z,99032.58
2022-11-21T12:08:54.001Z,99033.34
2022-11-21T12:10:29.788Z,99024.66
2022-11-21T12:11:50.885Z,99025.59
2022-11-21T12:12:56.673Z,99017.95
2022-11-21T12:14:02.252Z,99006.05
2022-11-21T12:15:25.112Z,99014.45
2022-11-21T12:16:29.237Z,99000.64
2022-11-21T12:17:51.708Z,98992.95
2022-11-21T12:19:09.657Z,98993.64
2022-11-21T12:20:19.095Z,98986.73
2022-11-21T12:21:22.259Z,98975.75
2022-11-21T12:22:24.553Z,98970.50
2022-11-21T12:23:30.252Z,98971.41
2022-11-21T12:24:39.800Z,98965.45
2022-11-21T12:25:55.603Z,98964.78
2022-11-21T12:27:18.317Z,98964.67
2022-11-21T12:28:24.829Z,98959.36
2022-11-21T12:29:54.570Z,98945.64
2022-11-21T12:31:05.968Z,98948.16
2022-11-21T12:32:26.323Z,98937.88
2022-11-21T12:33:32.006Z,98939.89
2022-11-21T12:34:40.763Z,98925.39
2022-11-21T12:36:04.721Z,98926.27
2022-11-21T12:37:38.248Z,98907.62
2022-11-21T12:38:53.102Z,98898.33
2022-11-21T12:39:58.875Z,98897.50
2022-11-21T12:41:21.432Z,98878.50
2022-11-21T12:42:27.220Z,98868.22
2022-11-21T12:43:42.107Z,98858.89
2022-11-21T12:45:02.902Z,98859.68
2022-11-21T12:46:20.931Z,98852.41
2022-11-21T12:47:35.741Z,98854.34
2022-11-21T12:49:04.389Z,98846.38
2022-11-21T12:50:22.849Z,98848.12
2022-11-21T12:51:50.043Z,98843.98
2022-11-21T12:52:58.614Z,98840.52
2022-11-21T12:54:16.237Z,98839.86
2022-11-21T12:55:36.541Z,98845.14
2022-11-21T12:56:42.759Z,98848.71
2022-11-21T12:57:57.730Z,98841.86
2022-11-21T12:59:01.954Z,98846.00
2022-11-21T13:00:11.314Z,98821.39
2022-11-21T13:01:21.407Z,98821.39
2022-11-21T13:02:58.530Z,98824.78
2022-11-21T13:04:07.238Z,98817.27
2022-11-21T13:05:12.902Z,98816.55
2022-11-21T13:06:31.688Z,98810.76
2022-11-21T13:07:34.133Z,98808.20
2022-11-21T13:08:38.803Z,98798.84
2022-11-21T13:09:44.283Z,98797.14
2022-11-21T13:10:50.003Z,98791.20
2022-11-21T13:12:11.360Z,98795.53
2022-11-21T13:13:23.378Z,98776.72
2022-11-21T13:14:54.633Z,98773.37
2022-11-21T13:16:07.611Z,98759.88
2022-11-21T13:17:28.715Z,98759.88
2022-11-21T13:18:37.089Z,98753.86
2022-11-21T13:20:01.027Z,98756.34
2022-11-21T13:21:04.971Z,98743.67
2022-11-21T13:22:27.687Z,98731.91
2022-11-21T13:23:42.197Z,98751.56
2022-11-21T13:24:48.281Z,98757.39
2022-11-21T13:25:50.797Z,98757.24
2022-11-21T13:26:53.795Z,98769.05
2022-11-21T13:28:14.521Z,98769.05
2022-11-21T13:29:16.472Z,98774.23
2022-11-21T13:30:21.488Z,98781.05
2022-11-21T13:31:31.802Z,98781.05
2022-11-21T13:32:52.652Z,98775.94
2022-11-21T13:33:55.492Z,98792.97
2022-11-21T13:34:57.757Z,98792.81
2022-11-21T13:36:12.289Z,98800.30
2022-11-21T13:37:17.980Z,98800.13
2022-11-21T13:38:19.787Z,98794.82
2022-11-21T13:39:28.665Z,98787.02
2022-11-21T13:40:37.055Z,98780.16
2022-11-21T13:41:48.265Z,98777.52
2022-11-21T13:43:32.857Z,98784.46
2022-11-21T13:44:35.210Z,98775.20
2022-11-21T13:45:45.129Z,98768.93
2022-11-21T13:48:19.924Z,98717.66
2022-11-21T13:49:25.642Z,98711.23
2022-11-21T13:50:43.353Z,98698.53
2022-11-21T13:51:49.024Z,98704.52
2022-11-21T13:54:27.288Z,98736.17
2022-11-21T13:55:57.786Z,98748.88
2022-11-21T13:57:16.303Z,98750.27
2022-11-21T13:58:27.711Z,98750.05
2022-11-21T13:59:49.030Z,98756.88
2022-11-21T14:01:28.806Z,98760.95
2022-11-21T14:02:52.823Z,98765.92
2022-11-21T14:04:04.243Z,98767.53
2022-11-21T14:05:39.119Z,98770.05
2022-11-21T14:06:42.140Z,98763.09
2022-11-21T14:07:45.040Z,98771.59
2022-11-21T14:09:25.808Z,98775.08
2022-11-21T14:10:33.468Z,98773.52
2022-11-21T14:11:42.164Z,98767.06
2022-11-21T14:12:47.769Z,98768.75
2022-11-21T14:13:49.988Z,98750.70
2022-11-21T14:15:04.558Z,98736.16
2022-11-21T14:16:29.703Z,98720.84
2022-11-21T14:17:41.745Z,98721.30
2022-11-21T14:18:47.205Z,98721.43
2022-11-21T14:19:52.958Z,98737.66
2022-11-21T14:20:58.102Z,98731.53
2022-11-21T14:22:00.559Z,98730.49
2022-11-21T14:23:05.689Z,98727.80
2022-11-21T14:24:14.056Z,98743.06
2022-11-21T14:25:22.149Z,98735.34
2022-11-21T14:26:26.593Z,98731.22
2022-11-21T14:27:31.850Z,98719.20
2022-11-21T14:28:34.810Z,98705.67
2022-11-21T14:29:40.496Z,98703.89
2022-11-21T14:30:44.163Z,98704.80
2022-11-21T14:31:47.572Z,98706.72
2022-11-21T14:32:54.122Z,98706.81
2022-11-21T14:33:57.898Z,98712.67
2022-11-21T14:35:09.565Z,98716.00
2022-11-21T14:36:25.873Z,98716.65
2022-11-21T14:37:27.794Z,98713.98
2022-11-21T14:38:36.964Z,98718.83
2022-11-21T14:39:44.063Z,98713.62
2022-11-21T14:40:44.353Z,98700.18
2022-11-21T14:41:52.047Z,98697.72
2022-11-21T14:42:54.479Z,98682.40
2022-11-21T14:44:02.350Z,98687.02
2022-11-21T14:45:18.929Z,98691.23
2022-11-21T14:46:20.850Z,98687.02
2022-11-21T14:47:26.334Z,98684.27
2022-11-21T14:48:28.973Z,98685.14
2022-11-21T14:49:31.188Z,98670.66
2022-11-21T14:50:35.915Z,98660.52
2022-11-21T14:51:39.956Z,98656.48
2022-11-21T14:52:41.996Z,98666.68
2022-11-21T14:53:45.001Z,98676.05
2022-11-21T14:56:03.463Z,98682.87
2022-11-21T14:57:10.630Z,98692.97
2022-11-21T14:58:16.161Z,98688.71
2022-11-21T14:59:27.496Z,98695.24
2022-11-21T15:01:34.942Z,98682.34
2022-11-21T15:02:37.252Z,98682.20
2022-11-21T15:03:41.262Z,98678.63
2022-11-21T15:04:44.393Z,98676.84
2022-11-21T15:06:52.055Z,98670.23
2022-11-21T15:08:10.476Z,98655.05
2022-11-21T15:10:25.084Z,98654.86
2022-11-21T15:10:36.128Z,98657.57
2022-11-21T15:11:12.381Z,98654.05
2022-11-21T15:12:33.927Z,98654.72
2022-11-21T15:13:58.477Z,98649.23
2022-11-21T15:15:00.739Z,98652.56
2022-11-21T15:16:04.827Z,98639.60
2022-11-21T15:17:10.350Z,98637.80
2022-11-21T15:18:27.603Z,98644.62
2022-11-21T15:19:22.724Z,98646.30
2022-11-21T15:20:27.390Z,98654.30
2022-11-21T15:21:30.030Z,98659.37
2022-11-21T15:22:37.914Z,98666.19
2022-11-21T15:23:39.916Z,98673.77
2022-11-21T15:24:44.315Z,98670.08
2022-11-21T15:25:47.224Z,98681.41
2022-11-21T15:26:50.126Z,98677.83
2022-11-21T15:28:04.836Z,98681.97
2022-11-21T15:29:11.321Z,98685.45
2022-11-21T15:30:30.736Z,98695.92
2022-11-21T15:31:32.669Z,98691.61
2022-11-21T15:32:54.815Z,98690.80
2022-11-21T15:35:31.936Z,98675.66
2022-11-21T15:36:33.545Z,98671.27
2022-11-21T15:37:35.658Z,98673.61
2022-11-21T15:38:43.339Z,98673.06
2022-11-21T15:39:48.767Z,98672.29
2022-11-21T15:41:06.816Z,98670.18
2022-11-21T15:42:29.391Z,98666.65
2022-11-21T15:43:46.021Z,98658.97
2022-11-21T15:45:02.696Z,98656.34
2022-11-21T15:46:11.406Z,98659.05
2022-11-21T15:47:14.059Z,98666.84
2022-11-21T15:48:15.874Z,98664.09
2022-11-21T15:49:33.727Z,98670.08
2022-11-21T15:50:23.402Z,98676.16
2022-11-21T15:51:59.655Z,98681.34
2022-11-21T15:52:35.354Z,98674.33
2022-11-21T15:53:38.169Z,98679.39
2022-11-21T15:54:39.974Z,98674.89